createdAt,value
2024-01-20T00:05:51.898Z,6.83
2024-01-20T00:15:56.370Z,7.07
2024-01-20T00:25:59.694Z,6.70
2024-01-20T00:36:04.846Z,6.27
2024-01-20T00:46:07.911Z,7.53
2024-01-20T00:56:12.370Z,7.93
2024-01-20T01:06:15.610Z,7.33
2024-01-20T01:16:20.633Z,6.77
2024-01-20T01:26:26.387Z,6.83
2024-01-20T01:36:32.061Z,6.40
2024-01-20T01:46:35.871Z,7.80
2024-01-20T01:56:42.645Z,7.13
2024-01-20T02:06:46.362Z,8.60
2024-01-20T02:16:51.844Z,6.83
2024-01-20T02:26:56.446Z,7.90
2024-01-20T02:36:59.608Z,7.20
2024-01-20T02:47:04.376Z,7.90
2024-01-20T02:57:07.729Z,9.80
2024-01-20T03:07:12.290Z,7.57
2024-01-20T03:17:15.374Z,8.13
2024-01-20T03:27:20.819Z,8.60
2024-01-20T03:37:23.881Z,7.97
2024-01-20T03:47:30.335Z,8.83
2024-01-20T03:57:34.356Z,8.10
2024-01-20T04:07:39.810Z,8.47
2024-01-20T04:17:42.962Z,8.30
2024-01-20T04:27:47.326Z,8.37
2024-01-20T04:37:51.302Z,8.43
2024-01-20T04:47:55.969Z,7.47
2024-01-20T04:57:59.243Z,7.97
2024-01-20T05:08:03.980Z,6.33
2024-01-20T05:18:07.767Z,6.87
2024-01-20T05:28:12.489Z,6.57
2024-01-20T05:38:15.684Z,6.27
2024-01-20T05:48:20.232Z,6.53
2024-01-20T05:58:23.935Z,7.10
2024-01-20T06:08:29.044Z,6.53
2024-01-20T06:18:33.080Z,5.93
2024-01-20T06:28:37.908Z,5.90
2024-01-20T06:38:41.040Z,6.83
2024-01-20T06:48:46.144Z,6.57
2024-01-20T06:58:49.382Z,5.73
2024-01-20T07:08:54.065Z,5.10
2024-01-20T07:18:57.352Z,5.73
2024-01-20T07:29:02.053Z,6.47
2024-01-20T07:39:05.825Z,6.37
2024-01-20T07:49:10.494Z,7.30
2024-01-20T07:59:13.981Z,5.83
2024-01-20T08:09:18.561Z,6.43
2024-01-20T08:19:21.974Z,6.07
2024-01-20T08:29:26.691Z,6.37
2024-01-20T08:39:29.696Z,5.47
2024-01-20T08:49:33.992Z,6.27
2024-01-20T08:59:37.097Z,6.33
2024-01-20T09:09:41.583Z,6.40
2024-01-20T09:19:46.033Z,6.10
2024-01-20T09:29:50.566Z,6.07
2024-01-20T09:39:53.559Z,5.40
2024-01-20T09:49:58.133Z,5.80
2024-01-20T10:00:06.406Z,7.50
2024-01-20T10:10:22.855Z,5.70
2024-01-20T10:20:27.661Z,5.97
2024-01-20T10:30:31.996Z,6.07
2024-01-20T10:40:41.600Z,6.20
2024-01-20T10:50:52.267Z,5.93
2024-01-20T11:00:56.437Z,5.43
2024-01-20T11:11:01.773Z,6.80
2024-01-20T11:21:05.964Z,7.20
2024-01-20T11:31:19.503Z,6.53
2024-01-20T11:41:22.807Z,8.53
2024-01-20T11:51:27.439Z,7.33
2024-01-20T12:01:30.683Z,7.77
2024-01-20T12:11:36.780Z,8.00
2024-01-20T12:22:30.621Z,6.90
2024-01-20T12:32:35.316Z,8.07
2024-01-20T12:42:41.261Z,7.47
2024-01-20T12:52:46.523Z,8.67
2024-01-20T13:02:49.684Z,9.13
2024-01-20T13:12:54.273Z,8.93
2024-01-20T13:22:57.513Z,8.03
2024-01-20T13:33:02.202Z,9.33
2024-01-20T13:43:05.617Z,10.03
2024-01-20T13:53:10.691Z,8.97
2024-01-20T14:03:14.190Z,10.43
2024-01-20T14:13:18.911Z,10.23
2024-01-20T14:23:23.425Z,10.67
2024-01-20T14:33:28.247Z,10.17
2024-01-20T14:43:32.530Z,10.97
2024-01-20T14:53:36.938Z,10.93
2024-01-20T15:03:40.287Z,10.67
2024-01-20T15:13:45.976Z,10.20
2024-01-20T15:23:50.766Z,10.67
2024-01-20T15:33:57.828Z,11.63
2024-01-20T15:44:01.549Z,11.17
2024-01-20T15:54:06.090Z,11.13
2024-01-20T16:04:10.070Z,11.67
2024-01-20T16:14:14.664Z,9.80
2024-01-20T16:24:17.924Z,11.80
2024-01-20T16:34:23.727Z,11.17
2024-01-20T16:44:27.201Z,11.93
2024-01-20T16:54:32.601Z,12.60
2024-01-20T17:04:35.876Z,12.27
2024-01-20T17:14:40.903Z,12.17
2024-01-20T17:24:44.745Z,12.03
2024-01-20T17:34:49.591Z,12.53
2024-01-20T17:44:53.262Z,10.67
2024-01-20T17:54:58.438Z,10.77
2024-01-20T18:05:02.066Z,11.37
2024-01-20T18:15:08.545Z,18.30
2024-01-20T18:25:11.963Z,16.53
2024-01-20T18:35:16.826Z,12.40
2024-01-20T18:45:20.524Z,11.20
2024-01-20T18:55:25.023Z,14.87
2024-01-20T19:05:28.694Z,12.30
2024-01-20T19:15:33.228Z,10.80
2024-01-20T19:25:36.525Z,12.33
2024-01-20T19:35:41.320Z,16.53
2024-01-20T19:45:45.549Z,12.43
2024-01-20T19:55:49.846Z,13.97
2024-01-20T20:05:53.023Z,11.93
2024-01-20T20:15:58.393Z,12.30
2024-01-20T20:26:01.724Z,11.40
2024-01-20T20:36:07.128Z,10.70
2024-01-20T20:46:10.476Z,13.83
2024-01-20T20:56:15.423Z,12.07
2024-01-20T21:06:19.373Z,11.27
2024-01-20T21:16:25.444Z,11.13
2024-01-20T21:26:29.566Z,10.40
2024-01-20T21:36:34.651Z,9.30
2024-01-20T21:46:39.462Z,8.20
2024-01-20T21:56:43.751Z,7.63
2024-01-20T22:06:47.233Z,6.93
2024-01-20T22:16:51.705Z,6.90
2024-01-20T22:26:54.651Z,8.00
2024-01-20T22:36:58.950Z,6.83
2024-01-20T22:47:02.290Z,5.50
2024-01-20T22:57:08.464Z,5.83
2024-01-20T23:07:11.664Z,6.70
2024-01-20T23:17:17.019Z,5.20
2024-01-20T23:27:21.461Z,5.17
2024-01-20T23:37:25.893Z,4.87
2024-01-20T23:47:29.002Z,5.50
2024-01-20T23:57:33.947Z,5.40
